Belgium, WI (53004)

08:21 PM CST am 05. März 2015 (GMT -0600)
Silver Beach | Change Station
CLOSE
Current Station
Persönliche Wetterstationen
Location: Belgium, WI
Höhe: 614 ft
Wetterstationen in der Umgebung

Höhe 614 ft 43.51 °N, 87.79 °W | Updated 1 minute ago

Teils Wolkig
Teils Wolkig
5.5 °F
gefühlte 6 °F
N
0.0
Wind Wechselnd Wind aus West

Heute
Max. -- | schwach -- °F
--% Regenrisiko
Gestern
Max. -- | schwach -- °F
Precip. -- inch
6:21 AM 5:45 PM
Vollmond, 100% visible
Druck 30.45 inch
Sichtweite 10.0 Meilen
Wolken Heiter
Windchill 6 °F
Taupunkt -3 °F
Feuchtigkeit 67%
Regen inch
Schneehöhe Nicht verfügbar..
UV 0 von 12
Pollen .50 von 12
Luftqualität Nicht verfügbar..
Flu Activity Nicht verfügbar..
METAR KETB 060150Z AUTO 21003KT 10SM CLR M14/M21 A3045 RMK AO2

More Conditions Fewer Conditions

Druck 30.45 inch
Sichtweite 10.0 Meilen
Wolken Heiter
Windchill 6 °F
Taupunkt -3 °F
Feuchtigkeit 67%
Regen inch
Schneehöhe Nicht verfügbar..
UV 0 von 12
Pollen .50 von 12
Luftqualität Nicht verfügbar..
Flu Activity Nicht verfügbar..
METAR KETB 060150Z AUTO 21003KT 10SM CLR M14/M21 A3045 RMK AO2

More Conditions Fewer Conditions

10-Day Weather Forecast

Almanac

Astronomie

Mar. 05, 2015 Aufgang Untergang
Genaue Zeit
Bürgerliche Dämmerung
Nautische Dämmerung
Astronomische Dämmerung
Mond
Länge des sichtbaren Lichts
Tageslänge
Tomorrow will be .
, % of the Moon is Illuminated

Heutige Rekorde

State Highs State Lows

Community

WunderPhotos

Upload Photos

1,803,113 Fotos hochgeladen!

WunderBlogs® & News

Nearby

Luftqualität

  Luftqualität LQ Index Schadstoff
Not available.

Schneehöhe

Station Depth Höhe

Erdbebenaktivität

Stadt Distance Mag. Time & Date
Minimum magnitude displayed is 2.5.

küstennahe Wassertemperaturen

Ort Temperatur

Wetterstationen in der Umgebung